Time;durP1;ratioP1;P1;durP2;ratioP2;P2;SDS_P1;SDS_P2;PMS_P1;PMS_P2;Temp;Humidity;BMP_temperature;BMP_pressure;BME280_temperature;BME280_humidity;BME280_pressure;Samples;Min_cycle;Max_cycle;Signal;HPM_P1;HPM_P2
2021/10/11 00:00:08;;;;;;;18.32;10.48;;;;;;;13.95;46.14;102530.45;1743013;82;21519;-49
2021/10/11 00:02:37;;;;;;;13.18;9.50;;;;;;;13.93;46.17;102521.27;1737303;82;21077;-50
2021/10/11 00:05:04;;;;;;;20.70;11.08;;;;;;;13.91;46.10;102515.19;1738090;82;21007;-49
2021/10/11 00:07:31;;;;;;;22.07;9.90;;;;;;;13.88;45.69;102513.92;1739155;82;21505;-49
2021/10/11 00:09:58;;;;;;;15.98;9.45;;;;;;;13.85;45.33;102510.88;1739173;82;21026;-50
2021/10/11 00:12:26;;;;;;;15.45;9.53;;;;;;;13.83;45.40;102518.30;1736843;82;21011;-49
2021/10/11 00:14:53;;;;;;;18.17;10.55;;;;;;;13.81;45.47;102512.21;1736161;82;21054;-50
2021/10/11 00:17:20;;;;;;;20.15;9.75;;;;;;;13.80;45.47;102510.49;1736230;82;20983;-49
2021/10/11 00:19:50;;;;;;;16.00;9.78;;;;;;;13.79;45.38;102510.05;1736179;82;20982;-47
2021/10/11 00:22:19;;;;;;;16.23;9.47;;;;;;;13.76;45.21;102506.16;1736388;82;21010;-48
2021/10/11 00:24:45;;;;;;;15.83;8.80;;;;;;;13.74;45.16;102497.03;1734683;82;21026;-49
2021/10/11 00:27:13;;;;;;;15.05;9.20;;;;;;;13.74;45.08;102498.77;1730402;82;21046;-50
2021/10/11 00:29:40;;;;;;;23.47;9.75;;;;;;;13.73;45.07;102504.42;1730345;82;21078;-50
2021/10/11 00:32:08;;;;;;;12.90;8.40;;;;;;;13.73;45.14;102499.62;1727780;82;21519;-49
2021/10/11 00:34:35;;;;;;;14.60;9.18;;;;;;;13.74;45.27;102501.37;1728597;82;21106;-50
2021/10/11 00:37:04;;;;;;;12.05;7.70;;;;;;;13.72;45.21;102489.59;1725617;82;21028;-49
2021/10/11 00:39:30;;;;;;;12.20;8.28;;;;;;;13.72;45.03;102492.67;1727483;82;21010;-50
2021/10/11 00:41:57;;;;;;;13.05;8.13;;;;;;;13.70;44.92;102476.12;1727398;82;20987;-51
2021/10/11 00:44:23;;;;;;;10.03;8.10;;;;;;;13.69;44.78;102480.91;1727944;82;21010;-49
2021/10/11 00:46:49;;;;;;;12.50;7.70;;;;;;;13.68;44.70;102472.66;1729660;82;21014;-50
2021/10/11 00:49:16;;;;;;;13.15;8.50;;;;;;;13.66;44.65;102473.10;1730254;82;21015;-49
2021/10/11 00:51:43;;;;;;;16.87;8.13;;;;;;;13.64;44.80;102471.78;1726298;82;21090;-49
2021/10/11 00:54:10;;;;;;;18.85;9.85;;;;;;;13.64;44.93;102471.78;1728975;82;20955;-50
2021/10/11 00:56:37;;;;;;;16.15;8.35;;;;;;;13.63;45.04;102469.19;1727329;82;21031;-49
2021/10/11 00:59:03;;;;;;;14.53;8.83;;;;;;;13.62;45.31;102468.77;1727248;82;21496;-49
2021/10/11 01:01:30;;;;;;;13.13;8.85;;;;;;;13.62;45.61;102472.23;1727279;82;21035;-50
2021/10/11 01:03:58;;;;;;;12.82;8.53;;;;;;;13.60;46.05;102470.06;1727551;82;21030;-49
2021/10/11 01:06:26;;;;;;;13.70;8.65;;;;;;;13.59;46.20;102472.27;1729212;82;20995;-49
2021/10/11 01:08:53;;;;;;;11.88;8.33;;;;;;;13.57;46.45;102471.84;1723477;82;21551;-50
2021/10/11 01:11:19;;;;;;;19.32;9.20;;;;;;;13.55;46.53;102461.84;1695861;82;21038;-50
2021/10/11 01:13:46;;;;;;;14.15;8.50;;;;;;;13.53;46.38;102467.08;1727241;82;21008;-49
2021/10/11 01:16:13;;;;;;;13.88;9.50;;;;;;;13.52;46.19;102465.77;1729305;82;21523;-50
2021/10/11 01:18:39;;;;;;;15.13;8.53;;;;;;;13.53;45.74;102464.47;1731350;82;20979;-49
2021/10/11 01:21:06;;;;;;;11.55;8.60;;;;;;;13.53;45.32;102461.86;1730280;82;21039;-50
2021/10/11 01:23:33;;;;;;;15.72;8.70;;;;;;;13.53;45.41;102460.55;1729379;82;20999;-50
2021/10/11 01:26:00;;;;;;;15.80;8.18;;;;;;;13.55;45.25;102457.91;1733392;82;21097;-49
2021/10/11 01:28:28;;;;;;;13.85;8.33;;;;;;;13.54;44.99;102455.73;1735376;82;21542;-49
2021/10/11 01:30:56;;;;;;;15.10;8.85;;;;;;;13.55;44.87;102451.38;1735630;81;20994;-50
2021/10/11 01:33:22;;;;;;;13.85;8.93;;;;;;;13.54;44.78;102454.88;1735577;82;21007;-49
2021/10/11 01:35:49;;;;;;;14.83;8.63;;;;;;;13.52;44.84;102450.95;1736072;81;21510;-49
2021/10/11 01:38:15;;;;;;;16.20;9.10;;;;;;;13.51;44.60;102454.89;1736020;82;20987;-49
2021/10/11 01:40:42;;;;;;;12.35;8.63;;;;;;;13.48;44.32;102445.74;1736702;81;21014;-49
2021/10/11 01:43:09;;;;;;;18.52;8.98;;;;;;;13.48;44.20;102448.36;1738109;81;20970;-50
2021/10/11 01:45:37;;;;;;;18.12;9.08;;;;;;;13.46;44.00;102446.19;1738629;82;20999;-50
2021/10/11 01:48:05;;;;;;;13.65;8.70;;;;;;;13.43;43.82;102446.23;1737903;82;21070;-49
2021/10/11 01:50:32;;;;;;;12.60;8.50;;;;;;;13.40;43.87;102437.09;1725497;82;21494;-49
2021/10/11 01:52:59;;;;;;;13.90;9.35;;;;;;;13.39;43.63;102432.75;1738109;82;21010;-49
2021/10/11 01:55:26;;;;;;;15.03;8.55;;;;;;;13.38;43.47;102433.61;1735504;81;21010;-49
2021/10/11 01:57:52;;;;;;;20.85;8.93;;;;;;;13.37;43.34;102441.05;1737467;82;21002;-50
2021/10/11 02:00:19;;;;;;;12.18;8.80;;;;;;;13.35;43.44;102438.88;1733442;82;21014;-50
2021/10/11 02:02:45;;;;;;;12.85;8.95;;;;;;;13.34;43.29;102439.31;1740682;81;21034;-49
2021/10/11 02:05:12;;;;;;;12.50;8.55;;;;;;;13.30;43.34;102435.41;1737261;82;21499;-49
2021/10/11 02:07:39;;;;;;;15.68;9.08;;;;;;;13.27;43.44;102436.75;1735573;81;21035;-51
2021/10/11 02:10:07;;;;;;;11.15;8.73;;;;;;;13.26;43.52;102438.49;1735306;81;21023;-49
2021/10/11 02:12:33;;;;;;;14.95;8.80;;;;;;;13.25;43.57;102439.82;1735525;82;21030;-49
2021/10/11 02:15:01;;;;;;;13.58;8.95;;;;;;;13.23;43.38;102435.04;1729763;82;21046;-49
2021/10/11 02:17:28;;;;;;;14.40;9.40;;;;;;;13.20;43.27;102429.81;1737870;82;21010;-51
2021/10/11 02:19:55;;;;;;;10.72;8.83;;;;;;;13.21;43.47;102442.02;1735644;81;21034;-49
2021/10/11 02:22:22;;;;;;;12.23;9.00;;;;;;;13.19;43.54;102435.94;1735225;81;21027;-49
2021/10/11 02:24:48;;;;;;;18.50;9.75;;;;;;;13.20;43.27;102428.51;1735340;82;21688;-49
2021/10/11 02:27:15;;;;;;;15.65;10.00;;;;;;;13.19;43.28;102430.70;1735576;81;21038;-49
2021/10/11 02:29:42;;;;;;;12.55;8.93;;;;;;;13.18;43.51;102425.03;1736323;82;21023;-49
2021/10/11 02:32:08;;;;;;;15.23;9.73;;;;;;;13.17;43.64;102427.23;1738443;82;21471;-49
2021/10/11 02:34:35;;;;;;;15.40;9.40;;;;;;;13.15;43.78;102423.30;1738416;82;21019;-49
2021/10/11 02:37:02;;;;;;;14.58;9.88;;;;;;;13.15;43.73;102421.15;1713074;82;21554;-49
2021/10/11 02:39:29;;;;;;;19.50;9.95;;;;;;;13.12;43.72;102422.46;1737414;82;21082;-49
2021/10/11 02:41:56;;;;;;;13.22;9.85;;;;;;;13.08;43.40;102418.54;1737685;82;21067;-50
2021/10/11 02:44:23;;;;;;;16.20;9.63;;;;;;;13.05;43.28;102414.66;1738292;82;21058;-49
2021/10/11 02:46:50;;;;;;;16.40;10.05;;;;;;;13.02;43.14;102413.31;1730111;82;21050;-49
2021/10/11 02:49:16;;;;;;;14.50;9.50;;;;;;;13.00;43.23;102407.23;1736018;82;21054;-50
2021/10/11 02:51:43;;;;;;;15.83;9.55;;;;;;;13.00;43.10;102399.39;1736093;81;21022;-50
2021/10/11 02:54:11;;;;;;;12.60;9.18;;;;;;;13.00;42.94;102406.39;1738642;82;21518;-49
2021/10/11 02:56:38;;;;;;;13.58;9.55;;;;;;;12.99;42.86;102398.98;1738621;82;21043;-49
2021/10/11 02:59:05;;;;;;;14.60;10.03;;;;;;;12.98;42.57;102395.92;1736517;82;21554;-49
2021/10/11 03:01:33;;;;;;;16.55;10.58;;;;;;;12.97;42.03;102388.97;1736721;82;21109;-49
2021/10/11 03:03:59;;;;;;;12.10;9.13;;;;;;;12.93;42.03;102389.87;1737815;82;20990;-49
2021/10/11 03:06:26;;;;;;;14.55;10.45;;;;;;;12.91;41.97;102385.52;1738544;82;21546;-49
2021/10/11 03:08:53;;;;;;;15.98;9.90;;;;;;;12.88;41.51;102385.09;1738555;82;21028;-51
2021/10/11 03:11:19;;;;;;;15.43;10.05;;;;;;;12.87;41.55;102379.45;1736667;82;21007;-49
2021/10/11 03:13:46;;;;;;;16.42;10.35;;;;;;;12.86;41.44;102375.09;1735098;82;21026;-49
2021/10/11 03:16:13;;;;;;;15.18;10.68;;;;;;;12.83;41.44;102369.91;1730341;82;20983;-49
2021/10/11 03:18:39;;;;;;;15.68;10.38;;;;;;;12.83;41.52;102375.13;1738049;82;21045;-49
2021/10/11 03:21:06;;;;;;;13.68;10.10;;;;;;;12.81;41.70;102382.11;1735226;82;21007;-49
2021/10/11 03:23:33;;;;;;;15.88;9.53;;;;;;;12.80;41.65;102384.27;1741539;82;21491;-50
2021/10/11 03:26:00;;;;;;;13.55;9.50;;;;;;;12.79;41.62;102389.52;1739395;82;21018;-48
2021/10/11 03:28:26;;;;;;;15.35;9.45;;;;;;;12.78;41.80;102389.94;1738700;82;21006;-49
2021/10/11 03:30:53;;;;;;;15.63;9.53;;;;;;;12.77;41.79;102385.61;1737769;82;21029;-50
2021/10/11 03:33:19;;;;;;;13.08;9.55;;;;;;;12.79;41.75;102383.86;1735382;82;21022;-52
2021/10/11 03:35:47;;;;;;;16.20;9.35;;;;;;;12.78;41.47;102385.14;1735609;81;21471;-47
2021/10/11 03:38:13;;;;;;;14.75;9.95;;;;;;;12.78;41.57;102387.76;1735529;82;21426;-49
2021/10/11 03:40:40;;;;;;;14.45;10.15;;;;;;;12.76;41.69;102386.47;1735811;82;21035;-49
2021/10/11 03:43:07;;;;;;;16.60;10.85;;;;;;;12.74;41.84;102392.14;1736792;82;21061;-49
2021/10/11 03:45:33;;;;;;;17.45;10.70;;;;;;;12.73;41.64;102395.64;1735494;82;20983;-49
2021/10/11 03:47:59;;;;;;;13.03;9.13;;;;;;;12.68;41.56;102386.94;1737729;82;21014;-49
2021/10/11 03:50:27;;;;;;;17.80;10.75;;;;;;;12.66;41.57;102387.39;1738739;82;21074;-50
2021/10/11 03:52:53;;;;;;;25.65;10.20;;;;;;;12.64;41.51;102381.30;1738793;82;21039;-49
2021/10/11 03:55:21;;;;;;;13.10;9.53;;;;;;;12.63;41.23;102376.94;1736425;82;21038;-49
2021/10/11 03:57:47;;;;;;;16.50;10.23;;;;;;;12.62;41.53;102371.30;1735567;82;21003;-50
2021/10/11 04:00:15;;;;;;;17.87;10.85;;;;;;;12.61;41.24;102372.16;1736046;82;20982;-49
2021/10/11 04:02:43;;;;;;;13.88;9.80;;;;;;;12.58;41.39;102374.80;1734953;82;21019;-47
2021/10/11 04:05:09;;;;;;;12.73;10.13;;;;;;;12.57;41.31;102374.36;1735759;82;21002;-49
2021/10/11 04:07:39;;;;;;;14.05;9.98;;;;;;;12.55;41.03;102369.58;1737665;82;21014;-49
2021/10/11 04:10:06;;;;;;;15.08;10.30;;;;;;;12.54;41.38;102366.55;1738700;82;21046;-49
2021/10/11 04:12:37;;;;;;;15.05;10.32;;;;;;;12.52;41.25;102365.70;1734551;82;20995;-49
2021/10/11 04:15:07;;;;;;;16.53;10.47;;;;;;;12.50;41.15;102368.75;1731973;82;21037;-49
2021/10/11 04:17:37;;;;;;;15.85;10.35;;;;;;;12.46;41.19;102363.11;1735428;82;21089;-49
2021/10/11 04:20:06;;;;;;;15.18;11.25;;;;;;;12.43;41.15;102357.89;1731069;82;21019;-50
2021/10/11 04:22:33;;;;;;;14.18;10.60;;;;;;;12.40;41.36;102352.70;1722305;83;21066;-50
2021/10/11 04:24:59;;;;;;;17.65;10.75;;;;;;;12.35;41.31;102354.87;1716682;83;22437;-49
2021/10/11 04:27:26;;;;;;;15.05;10.72;;;;;;;12.32;41.50;102354.89;1727821;83;21062;-49
2021/10/11 04:29:53;;;;;;;13.53;10.78;;;;;;;12.30;41.57;102361.44;1727057;83;21049;-49
2021/10/11 04:32:20;;;;;;;14.40;9.98;;;;;;;12.28;41.36;102361.87;1727508;83;21046;-50
2021/10/11 04:34:47;;;;;;;17.07;10.45;;;;;;;12.27;41.71;102362.73;1727796;83;21021;-49
2021/10/11 04:37:13;;;;;;;19.05;11.10;;;;;;;12.25;41.63;102359.27;1727363;83;20990;-49
2021/10/11 04:39:40;;;;;;;19.15;11.20;;;;;;;12.23;41.78;102355.36;1726787;83;21034;-49
2021/10/11 04:42:06;;;;;;;21.60;11.50;;;;;;;12.23;41.86;102370.14;1727132;83;21546;-49
2021/10/11 04:44:33;;;;;;;20.02;11.45;;;;;;;12.22;41.82;102367.09;1727071;83;21007;-51
2021/10/11 04:46:59;;;;;;;13.85;10.75;;;;;;;12.21;41.78;102364.06;1727475;83;21034;-49
2021/10/11 04:49:26;;;;;;;13.38;10.72;;;;;;;12.20;41.64;102368.41;1727632;83;21093;-49
2021/10/11 04:51:53;;;;;;;21.90;10.32;;;;;;;12.20;41.80;102363.61;1727953;83;21041;-48
2021/10/11 04:54:20;;;;;;;21.97;12.18;;;;;;;12.21;41.76;102364.06;1727139;83;21071;-49
2021/10/11 04:56:46;;;;;;;15.10;10.55;;;;;;;12.22;42.04;102364.05;1726681;83;21118;-52
2021/10/11 04:59:13;;;;;;;15.18;10.82;;;;;;;12.22;41.95;102363.17;1714702;83;21029;-49
2021/10/11 05:01:41;;;;;;;20.45;11.68;;;;;;;12.21;41.80;102371.89;1713638;83;21029;-50
2021/10/11 05:04:08;;;;;;;15.32;10.80;;;;;;;12.20;41.76;102367.53;1728446;83;21069;-50
2021/10/11 05:06:34;;;;;;;20.92;10.45;;;;;;;12.22;41.82;102369.70;1727337;83;21017;-49
2021/10/11 05:09:01;;;;;;;13.20;10.05;;;;;;;12.23;41.90;102372.75;1726972;83;21037;-49
2021/10/11 05:11:29;;;;;;;15.75;10.53;;;;;;;12.24;41.66;102368.83;1724732;83;21007;-49
2021/10/11 05:13:55;;;;;;;17.40;11.15;;;;;;;12.24;41.67;102364.06;1727942;83;21030;-49
2021/10/11 05:16:23;;;;;;;18.30;11.33;;;;;;;12.22;41.82;102368.39;1724615;83;21097;-48
2021/10/11 05:18:51;;;;;;;18.27;11.08;;;;;;;12.21;41.97;102364.94;1727647;83;21014;-50
2021/10/11 05:21:17;;;;;;;15.05;10.58;;;;;;;12.21;41.86;102370.16;1727644;83;21537;-49
2021/10/11 05:23:44;;;;;;;15.40;10.93;;;;;;;12.21;41.79;102364.06;1727279;83;21087;-50
2021/10/11 05:26:11;;;;;;;20.97;11.35;;;;;;;12.20;41.92;102367.53;1742262;82;21094;-50
2021/10/11 05:28:37;;;;;;;17.90;12.40;;;;;;;12.20;41.95;102366.22;1738210;82;21015;-50
2021/10/11 05:31:04;;;;;;;18.90;11.18;;;;;;;12.19;41.97;102367.12;1738510;82;21007;-49
2021/10/11 05:33:31;;;;;;;15.45;10.82;;;;;;;12.19;42.08;102363.20;1737023;82;21039;-49
2021/10/11 05:35:58;;;;;;;16.40;11.75;;;;;;;12.20;42.23;102365.80;1735429;82;21077;-50
2021/10/11 05:38:24;;;;;;;14.73;10.85;;;;;;;12.22;42.31;102365.78;1735216;82;21459;-50
2021/10/11 05:40:51;;;;;;;18.57;11.73;;;;;;;12.25;42.55;102367.09;1699163;82;20995;-50
2021/10/11 05:43:17;;;;;;;17.35;11.45;;;;;;;12.28;42.79;102360.58;1738457;82;21050;-49
2021/10/11 05:45:44;;;;;;;15.50;11.78;;;;;;;12.29;43.03;102368.82;1723464;82;21828;-49
2021/10/11 05:48:10;;;;;;;20.62;11.05;;;;;;;12.31;43.24;102369.69;1737104;82;21103;-49
2021/10/11 05:50:37;;;;;;;19.42;11.70;;;;;;;12.33;43.33;102370.55;1737745;82;20998;-47
2021/10/11 05:53:03;;;;;;;12.75;10.40;;;;;;;12.35;43.57;102368.80;1738397;82;21039;-50
2021/10/11 05:55:30;;;;;;;15.70;11.73;;;;;;;12.39;43.39;102365.30;1738295;82;21024;-49
2021/10/11 05:57:58;;;;;;;16.32;10.88;;;;;;;12.44;43.22;102370.08;1735974;82;21022;-49
2021/10/11 06:00:24;;;;;;;15.00;10.53;;;;;;;12.52;42.85;102373.95;1735094;82;20998;-50
2021/10/11 06:02:51;;;;;;;14.87;10.55;;;;;;;12.61;42.49;102370.86;1735430;82;21058;-49
2021/10/11 06:05:18;;;;;;;14.45;10.60;;;;;;;12.72;42.44;102369.51;1735540;82;21082;-49
2021/10/11 06:07:45;;;;;;;14.55;11.28;;;;;;;12.84;42.25;102371.62;1736070;82;21017;-50
2021/10/11 06:10:11;;;;;;;17.05;11.33;;;;;;;12.96;42.02;102363.70;1731561;82;20995;-51
2021/10/11 06:12:38;;;;;;;16.85;11.65;;;;;;;13.06;41.87;102368.03;1734529;82;21006;-50
2021/10/11 06:15:06;;;;;;;17.10;11.38;;;;;;;13.12;41.75;102359.73;1738387;82;20955;-50
2021/10/11 06:17:34;;;;;;;14.78;11.15;;;;;;;13.17;41.79;102360.12;1736828;82;21059;-49
2021/10/11 06:20:01;;;;;;;13.48;10.28;;;;;;;13.22;41.78;102353.13;1735178;82;21062;-50
2021/10/11 06:22:27;;;;;;;17.73;11.08;;;;;;;13.27;41.64;102346.56;1735246;82;21456;-48
2021/10/11 06:24:54;;;;;;;16.52;10.53;;;;;;;13.30;41.67;102355.24;1735326;82;21093;-50
2021/10/11 06:27:21;;;;;;;18.55;11.53;;;;;;;13.35;41.80;102349.98;1728629;82;21622;-50
2021/10/11 06:29:48;;;;;;;14.47;10.48;;;;;;;13.39;41.94;102351.70;1725224;82;21099;-49
2021/10/11 06:32:14;;;;;;;14.50;9.48;;;;;;;13.42;41.86;102347.30;1728940;82;20991;-50
2021/10/11 06:34:41;;;;;;;14.98;10.68;;;;;;;13.48;41.87;102350.30;1727443;82;21531;-50
2021/10/11 06:37:09;;;;;;;17.25;11.15;;;;;;;13.54;41.96;102345.04;1727536;82;20979;-47
2021/10/11 06:39:35;;;;;;;17.17;10.60;;;;;;;13.63;41.94;102342.32;1727385;82;21018;-49
2021/10/11 06:42:02;;;;;;;19.35;11.25;;;;;;;13.74;41.84;102348.34;1727964;82;21015;-48
2021/10/11 06:44:31;;;;;;;14.65;10.98;;;;;;;13.84;41.55;102347.36;1724383;82;21512;-50
2021/10/11 06:46:58;;;;;;;13.95;11.43;;;;;;;13.91;41.38;102360.79;1724009;82;21023;-51
2021/10/11 06:49:26;;;;;;;13.48;10.82;;;;;;;13.97;41.40;102363.38;1727741;82;21011;-50
2021/10/11 06:51:53;;;;;;;16.77;11.83;;;;;;;14.02;41.33;102370.72;1727032;82;21035;-50
2021/10/11 06:54:20;;;;;;;22.65;10.88;;;;;;;14.06;41.33;102375.04;1729007;82;21075;-50
2021/10/11 06:56:46;;;;;;;16.80;12.07;;;;;;;14.08;41.21;102364.11;1728260;82;21043;-49
2021/10/11 06:59:13;;;;;;;15.93;12.18;;;;;;;14.11;41.23;102357.98;1729422;82;21062;-49
2021/10/11 07:01:39;;;;;;;21.23;11.83;;;;;;;14.11;41.38;102357.55;1730518;82;20956;-49
2021/10/11 07:04:07;;;;;;;16.57;12.28;;;;;;;14.09;41.34;102352.77;1730232;82;21003;-49
2021/10/11 07:06:34;;;;;;;18.67;13.05;;;;;;;14.08;41.37;102351.45;1728486;82;21495;-49
2021/10/11 07:09:01;;;;;;;20.82;12.70;;;;;;;14.05;41.45;102348.45;1727500;82;21518;-50
2021/10/11 07:11:27;;;;;;;19.52;12.90;;;;;;;14.06;41.55;102341.02;1727251;82;21517;-49
2021/10/11 07:13:54;;;;;;;20.60;11.78;;;;;;;14.09;41.42;102331.83;1727298;82;21008;-50
2021/10/11 07:16:22;;;;;;;17.95;12.40;;;;;;;14.11;41.54;102332.68;1727038;82;21459;-50
2021/10/11 07:18:48;;;;;;;22.65;12.10;;;;;;;14.11;41.68;102331.37;1729604;82;21050;-49
2021/10/11 07:21:15;;;;;;;17.92;12.25;;;;;;;14.11;41.80;102331.37;1727812;82;21006;-50
2021/10/11 07:23:42;;;;;;;21.77;11.63;;;;;;;14.11;41.79;102327.45;1729076;82;21056;-50
2021/10/11 07:26:09;;;;;;;16.00;11.35;;;;;;;14.12;41.84;102325.23;1731441;82;21113;-48
2021/10/11 07:28:36;;;;;;;14.25;11.35;;;;;;;14.12;41.91;102323.05;1738431;82;21637;-49
2021/10/11 07:31:03;;;;;;;15.50;11.78;;;;;;;14.13;42.28;102323.06;1737814;82;20986;-49
2021/10/11 07:33:30;;;;;;;14.35;11.40;;;;;;;14.16;42.47;102318.20;1734949;82;21027;-49
2021/10/11 07:35:57;;;;;;;20.48;11.63;;;;;;;14.17;42.75;102319.52;1725557;81;21046;-49
2021/10/11 07:38:24;;;;;;;14.68;11.38;;;;;;;14.20;43.22;102322.08;1737828;82;21510;-50
2021/10/11 07:40:52;;;;;;;18.00;12.00;;;;;;;14.23;43.43;102318.14;1738581;82;21054;-51
2021/10/11 07:43:19;;;;;;;17.92;12.82;;;;;;;14.25;43.46;102316.36;1738704;82;21030;-49
2021/10/11 07:45:46;;;;;;;18.85;12.82;;;;;;;14.27;43.75;102316.34;1736321;82;20999;-51
2021/10/11 07:48:13;;;;;;;21.30;12.18;;;;;;;14.25;43.68;102316.36;1735387;82;21046;-47
2021/10/11 07:50:40;;;;;;;17.20;11.83;;;;;;;14.25;44.06;102317.67;1735143;82;21018;-49
2021/10/11 07:53:07;;;;;;;14.18;10.82;;;;;;;14.29;44.14;102315.91;1736034;82;20987;-49
2021/10/11 07:55:33;;;;;;;16.27;12.20;;;;;;;14.31;44.15;102311.08;1735638;82;20971;-49
2021/10/11 07:58:00;;;;;;;24.60;13.15;;;;;;;14.31;44.10;102304.54;1737854;82;21022;-49
2021/10/11 08:00:27;;;;;;;18.00;11.50;;;;;;;14.31;44.40;102307.16;1738223;82;21058;-47
2021/10/11 08:02:54;;;;;;;19.50;11.95;;;;;;;14.33;44.46;102301.45;1734443;82;21566;-49
2021/10/11 08:05:22;;;;;;;17.45;12.15;;;;;;;14.38;44.23;102306.64;1725836;82;21054;-49
2021/10/11 08:07:50;;;;;;;20.05;12.95;;;;;;;14.43;44.36;102308.73;1737559;82;21026;-49
2021/10/11 08:10:16;;;;;;;17.17;12.28;;;;;;;14.48;44.30;102301.70;1738621;82;20991;-47
2021/10/11 08:12:43;;;;;;;18.73;13.20;;;;;;;14.54;44.22;102303.80;1734191;82;21049;-49
2021/10/11 08:15:09;;;;;;;21.50;11.93;;;;;;;14.59;44.46;102304.59;1738683;82;21002;-49
2021/10/11 08:17:38;;;;;;;17.42;12.30;;;;;;;14.65;44.59;102296.64;1737627;82;21513;-47
2021/10/11 08:20:09;;;;;;;15.93;12.13;;;;;;;14.72;44.71;102291.31;1735362;82;20978;-48
2021/10/11 08:22:36;;;;;;;20.37;12.73;;;;;;;14.78;44.73;102283.36;1735719;82;21463;-47
2021/10/11 08:25:04;;;;;;;19.17;12.65;;;;;;;14.82;44.68;102277.22;1730641;82;21030;-51
2021/10/11 08:27:30;;;;;;;25.17;12.23;;;;;;;14.85;44.69;102278.02;1733492;82;21050;-49
2021/10/11 08:29:57;;;;;;;17.85;12.28;;;;;;;14.88;44.75;102274.50;1727302;82;21034;-46
2021/10/11 08:32:27;;;;;;;15.55;12.10;;;;;;;14.90;44.58;102274.03;1726602;82;21015;-49
2021/10/11 08:34:54;;;;;;;17.07;12.65;;;;;;;14.91;44.76;102266.57;1734035;82;21572;-49
2021/10/11 08:37:21;;;;;;;17.82;12.70;;;;;;;14.92;44.98;102265.70;1727480;82;21476;-49
2021/10/11 08:39:49;;;;;;;16.65;13.25;;;;;;;14.92;45.16;102256.52;1728355;82;21026;-49
2021/10/11 08:42:16;;;;;;;15.38;11.88;;;;;;;14.91;45.39;102250.41;1730712;82;20983;-49
2021/10/11 08:44:44;;;;;;;16.42;12.07;;;;;;;14.92;45.61;102248.66;1726156;82;21086;-48
2021/10/11 08:47:12;;;;;;;18.52;12.55;;;;;;;14.94;45.87;102248.19;1725071;82;20979;-49
2021/10/11 08:49:48;;;;;;;18.25;12.90;;;;;;;14.96;45.80;102247.25;1727083;82;21038;-49
2021/10/11 08:52:15;;;;;;;17.75;12.33;;;;;;;15.01;45.91;102251.11;1680903;85;21026;-47
2021/10/11 08:54:43;;;;;;;19.17;12.88;;;;;;;15.07;45.91;102247.08;1684114;85;21045;-49
2021/10/11 08:57:19;;;;;;;18.35;11.97;;;;;;;15.13;45.89;102245.66;1684079;85;21532;-49
2021/10/11 08:59:48;;;;;;;20.43;12.60;;;;;;;15.19;45.92;102249.49;1590431;89;21083;-47
2021/10/11 09:02:19;;;;;;;17.92;12.82;;;;;;;15.27;45.85;102250.25;1596463;89;21056;-49
2021/10/11 09:04:56;;;;;;;18.55;12.58;;;;;;;15.35;45.77;102253.61;1596321;89;21039;-49
2021/10/11 09:07:25;;;;;;;16.55;13.00;;;;;;;15.42;45.61;102255.21;1578552;91;21111;-49
2021/10/11 09:09:53;;;;;;;16.35;12.50;;;;;;;15.46;45.08;102254.30;1577442;91;21117;-49
2021/10/11 09:12:26;;;;;;;20.92;12.80;;;;;;;15.48;45.15;102252.07;1577792;91;21095;-49
2021/10/11 09:15:13;;;;;;;16.17;12.15;;;;;;;15.53;45.37;102251.12;1510608;95;21082;-49
2021/10/11 09:20:19;;;;;;;18.23;11.97;;;;;;;15.64;45.40;102243.45;1494162;96;21101;-49
2021/10/11 09:22:50;;;;;;;24.30;12.98;;;;;;;15.68;45.56;102237.72;1489909;96;21077;-47
2021/10/11 09:25:18;;;;;;;16.65;12.98;;;;;;;15.74;45.65;102239.78;1494198;96;21110;-47
2021/10/11 09:27:54;;;;;;;15.58;12.05;;;;;;;15.78;45.84;102236.20;1485082;96;21175;-47
2021/10/11 09:30:28;;;;;;;16.65;12.95;;;;;;;15.83;46.06;102234.34;1478848;97;21103;-49
2021/10/11 09:33:09;;;;;;;19.17;12.63;;;;;;;15.87;46.21;102238.62;1458506;98;21116;-49
2021/10/11 09:35:36;;;;;;;21.30;13.25;;;;;;;15.91;46.26;102229.80;1438351;99;21136;-50
2021/10/11 09:38:04;;;;;;;20.75;14.45;;;;;;;15.98;46.59;102227.47;1468826;97;21561;-49
2021/10/11 09:40:40;;;;;;;18.85;14.80;;;;;;;16.03;46.93;102226.07;1472369;97;21124;-47
2021/10/11 09:43:17;;;;;;;16.27;14.15;;;;;;;16.09;47.14;102220.69;1472101;97;21633;-47
2021/10/11 09:45:44;;;;;;;19.98;12.90;;;;;;;16.18;47.08;102220.03;1472113;97;21181;-49
2021/10/11 09:48:11;;;;;;;19.02;14.10;;;;;;;16.29;46.74;102208.85;1470401;96;21554;-50
2021/10/11 09:50:39;;;;;;;23.02;14.75;;;;;;;16.39;46.57;102202.06;1488735;96;21135;-50
2021/10/11 09:53:06;;;;;;;19.37;14.18;;;;;;;16.48;46.57;102201.42;1488688;96;21514;-50
2021/10/11 09:55:34;;;;;;;20.25;14.90;;;;;;;16.56;46.58;102198.64;1488571;96;21598;-49
2021/10/11 09:58:01;;;;;;;19.50;13.80;;;;;;;16.64;46.54;102194.05;1488851;96;21138;-49
2021/10/11 10:00:28;;;;;;;19.00;14.05;;;;;;;16.71;46.37;102190.39;1488943;96;21823;-47
2021/10/11 10:02:55;;;;;;;17.05;12.18;;;;;;;16.77;46.21;102188.93;1498087;92;21551;-49
2021/10/11 10:05:29;;;;;;;20.48;13.03;;;;;;;16.83;45.84;102187.46;1536963;92;21125;-50
2021/10/11 10:07:56;;;;;;;15.98;12.58;;;;;;;16.87;45.69;102178.59;1537940;92;21509;-48
2021/10/11 10:10:25;;;;;;;17.05;12.88;;;;;;;16.94;45.84;102179.70;1512372;94;21101;-49
2021/10/11 10:12:52;;;;;;;20.40;13.45;;;;;;;17.01;46.03;102181.73;1599951;87;21037;-49
2021/10/11 10:15:32;;;;;;;18.60;13.28;;;;;;;17.09;45.77;102182.39;1626789;87;21034;-49
2021/10/11 10:18:12;;;;;;;16.23;12.65;;;;;;;17.15;45.56;102171.71;1600863;89;21062;-49
2021/10/11 10:20:58;;;;;;;16.15;12.88;;;;;;;17.19;45.42;102170.73;1607425;89;21033;-50
2021/10/11 10:23:36;;;;;;;17.23;12.63;;;;;;;17.22;45.43;102166.71;1550847;92;21058;-50
2021/10/11 10:26:09;;;;;;;17.98;13.88;;;;;;;17.26;45.01;102164.41;1522062;94;21285;-52
2021/10/11 10:28:50;;;;;;;19.15;13.38;;;;;;;17.29;44.72;102160.36;1503922;94;21681;-50
2021/10/11 10:31:37;;;;;;;15.40;12.73;;;;;;;17.34;44.60;102165.06;1492754;95;21082;-48
2021/10/11 10:34:18;;;;;;;19.45;11.48;;;;;;;17.39;44.75;102157.92;1498342;95;21102;-50
2021/10/11 10:37:00;;;;;;;16.57;12.25;;;;;;;17.47;44.34;102154.63;1498497;95;21110;-47
2021/10/11 10:39:45;;;;;;;19.75;11.97;;;;;;;17.55;44.48;102159.25;1490750;96;21692;-48
2021/10/11 10:42:27;;;;;;;16.42;11.57;;;;;;;17.60;43.99;102148.11;1464026;98;21627;-48
2021/10/11 10:44:56;;;;;;;15.28;12.20;;;;;;;17.65;43.66;102142.28;1489868;96;21146;-50
2021/10/11 10:47:41;;;;;;;17.55;11.90;;;;;;;17.69;43.73;102141.28;1465949;98;21113;-48
2021/10/11 10:50:20;;;;;;;14.35;11.60;;;;;;;17.71;43.67;102128.94;1486992;96;21136;-50
2021/10/11 10:52:51;;;;;;;15.50;11.30;;;;;;;17.73;43.79;102127.12;1462523;98;21196;-48
2021/10/11 10:55:17;;;;;;;17.37;12.80;;;;;;;17.74;43.81;102128.83;1446397;99;21136;-52
2021/10/11 10:57:44;;;;;;;16.60;12.50;;;;;;;17.77;43.74;102124.80;1455101;99;21879;-50
2021/10/11 11:00:17;;;;;;;17.32;11.68;;;;;;;17.79;43.73;102128.70;1433443;100;21235;-50
2021/10/11 11:02:49;;;;;;;17.57;11.93;;;;;;;17.81;43.45;102133.02;1459688;97;21133;-50
2021/10/11 11:05:18;;;;;;;15.18;12.23;;;;;;;17.83;43.26;102131.20;1477427;97;21106;-50
2021/10/11 11:07:47;;;;;;;16.75;11.33;;;;;;;17.85;43.17;102129.38;1468697;97;21054;-49
2021/10/11 11:10:23;;;;;;;12.20;10.53;;;;;;;17.86;43.17;102120.59;1477518;97;21098;-50
2021/10/11 11:13:00;;;;;;;13.75;10.53;;;;;;;17.88;42.94;102118.77;1434391;100;21092;-47
2021/10/11 11:15:35;;;;;;;13.20;11.35;;;;;;;17.91;42.57;102111.69;1401602;102;21112;-53
2021/10/11 11:18:06;;;;;;;14.45;11.22;;;;;;;17.93;42.37;102109.87;1383296;104;21197;-52